KDTS Airport Information

Runway Information
Runway 14 Length 4999 ft width 100 ft
Elevation 22 ft Threshold 0 ft Heading 142
Runway 32 Length 4999 ft Width 100 ft
Elevation 21 ft Threshold 0 ft Heading 322
Airport Frequencies
Type A/D Name EGLIN APP/ Frequency 132.1 MHZ
Type ASOS Name ASOS Frequency 133.925 MHZ
Type CLD Name EGLIN CLNC Frequency 121.6 MHZ
Type UNIC Name UNICOM Frequency 123.075 MHZ
Airport Navaids
Airport Weather Information & NOTAM
ADDS - METARS form results

(2013 UTC 26 March 2019)
Data provider http://aviationweather.gov/metar/data/
 
METAR text: KDTS 261953Z 32012G16KT 10SM SCT046 22/08 A3006 RMK AO2 SLP179 T02170083
Conditions at: KDTS (DESTIN , FL, US) observed 1953 UTC 26 March 2019
Temperature: 21.7°C (71°F)
Dewpoint: 8.3°C (47°F) [RH = 42%]
Pressure (altimeter): 30.06 inches Hg (1018.0 mb)
[Sea-level pressure: 1017.9 mb]
Winds: from the NW (320 degrees) at 14 MPH (12 knots; 6.2 m/s)
gusting to 18 MPH (16 knots; 8.2 m/s)
Visibility: 10 or more miles (16+ km)
Ceiling: at least 12,000 feet AGL
Clouds: scattered clouds at 4600 feet AGL
Weather: no significant weather observed at this time